Startpagina
METAR-TAF:

METAR-TAF

Vliegvelden :

Koeweit, Koeweit

breedte: 29-13N, lengte: 047-59E, hoogte: 55 m

Actueel weer

Dit bericht is 22 minuten geleden gemaakt, om 23:00 UTC
Wind 3 kt uit het westen
Temperatuur 24°C
Vochtigheid 27%
Druk 1010 hPa
Zicht: 8000 m
Onbewolkt

METAR: OKBK 222300Z 26003KT 8000 SKC 24/04 Q1010 NOSIG

Tijdstip: 02:22 (23:22 UTC)

Verwachting

Dit bericht is 6 uur en het 37 minuten geleden gemaakt, om 16:45 UTC
Verwachting geldig van 22 om 18 UTC tot 23 om 24 UTC
Wind 8 kt uit het noordnoordwesten met uitschieters tot 18 kt
Zicht: 8000 m
Onbewolkt

TAF: OKBK 221645Z 2218/2324 34008G18KT 8000 SKC

Waarnemingen en weersverwachtingen van meer dan 4000 vliegvelden (METAR en TAF).

De beschikbare stations zijn de gele en rode punten op de kaart.

Ga met uw muis naar het station om de naam te zien.

Klik dan om waarnemingen en weersverwachtingen te zien.

kaart wijzigen: klik op de groene knoppen met een zwart kruis om in te zoomen, op de groene knop met een streepje om uit te zoomen of op de groene pijlen voor aangrenzende kaarten.


METAR-TAF: